createdAt,value
2022-09-28T00:02:11.000Z,22.1
2022-09-28T00:04:37.000Z,21.65
2022-09-28T00:07:04.000Z,22.1
2022-09-28T00:09:30.000Z,20.77
2022-09-28T00:11:55.000Z,20.47
2022-09-28T00:14:20.000Z,19.8
2022-09-28T00:16:47.000Z,19.92
2022-09-28T00:19:13.000Z,20.62
2022-09-28T00:21:38.000Z,20.05
2022-09-28T00:24:05.000Z,20.37
2022-09-28T00:26:33.000Z,19.23
2022-09-28T00:28:58.000Z,19.75
2022-09-28T00:31:24.000Z,20.17
2022-09-28T00:33:49.000Z,18.95
2022-09-28T00:36:17.000Z,18.73
2022-09-28T00:38:46.000Z,18.75
2022-09-28T00:41:12.000Z,17.3
2022-09-28T00:43:38.000Z,16.73
2022-09-28T00:46:04.000Z,17.15
2022-09-28T00:48:29.000Z,17
2022-09-28T00:50:55.000Z,17.1
2022-09-28T00:53:22.000Z,17.8
2022-09-28T00:55:47.000Z,16.55
2022-09-28T00:58:15.000Z,15.7
2022-09-28T01:00:41.000Z,15.2
2022-09-28T01:03:08.000Z,15.4
2022-09-28T01:05:34.000Z,15.32
2022-09-28T01:08:01.000Z,14.77
2022-09-28T01:10:26.000Z,15.13
2022-09-28T01:12:52.000Z,14.15
2022-09-28T01:15:18.000Z,12.95
2022-09-28T01:17:44.000Z,13.43
2022-09-28T01:20:13.000Z,13.5
2022-09-28T01:22:39.000Z,13.65
2022-09-28T01:25:06.000Z,13.7
2022-09-28T01:27:35.000Z,13.58
2022-09-28T01:30:02.000Z,13.62
2022-09-28T01:32:27.000Z,14.1
2022-09-28T01:34:53.000Z,15.15
2022-09-28T01:37:19.000Z,17.13
2022-09-28T01:42:18.000Z,16.35
2022-09-28T01:44:43.000Z,16.77
2022-09-28T01:47:11.000Z,16.07
2022-09-28T01:49:36.000Z,15.6
2022-09-28T01:55:04.000Z,17.02
2022-09-28T01:57:04.000Z,18.57
2022-09-28T01:59:28.000Z,18.98
2022-09-28T02:01:57.000Z,18.2
2022-09-28T02:04:24.000Z,18
2022-09-28T02:09:23.000Z,17.55
2022-09-28T02:11:49.000Z,17.48
2022-09-28T02:14:21.000Z,17.35
2022-09-28T02:16:51.000Z,17.23
2022-09-28T02:19:17.000Z,17.35
2022-09-28T02:21:46.000Z,17.57
2022-09-28T02:24:12.000Z,17.07
2022-09-28T02:26:39.000Z,17.27
2022-09-28T02:29:05.000Z,17.07
2022-09-28T02:33:56.000Z,16.97
2022-09-28T02:36:23.000Z,16.43
2022-09-28T02:38:51.000Z,16.23
2022-09-28T02:41:17.000Z,16
2022-09-28T02:43:43.000Z,16.62
2022-09-28T02:46:08.000Z,16.03
2022-09-28T02:48:35.000Z,15.47
2022-09-28T02:51:02.000Z,15.4
2022-09-28T02:53:30.000Z,16.35
2022-09-28T02:56:00.000Z,15.37
2022-09-28T03:01:01.000Z,16.5
2022-09-28T03:03:29.000Z,17.1
2022-09-28T03:08:31.000Z,16.35
2022-09-28T03:10:59.000Z,15.83
2022-09-28T03:13:25.000Z,15.53
2022-09-28T03:15:51.000Z,16.2
2022-09-28T03:18:17.000Z,16.05
2022-09-28T03:20:43.000Z,15.13
2022-09-28T03:23:11.000Z,14.68
2022-09-28T03:25:39.000Z,15.77
2022-09-28T03:28:06.000Z,16
2022-09-28T03:30:31.000Z,15.9
2022-09-28T03:32:59.000Z,15.93
2022-09-28T03:35:25.000Z,16.02
2022-09-28T03:37:53.000Z,15.97
2022-09-28T03:40:24.000Z,15.3
2022-09-28T03:42:53.000Z,15.13
2022-09-28T03:45:23.000Z,14.85
2022-09-28T03:47:50.000Z,15.87
2022-09-28T03:50:20.000Z,15.4
2022-09-28T03:52:45.000Z,15.83
2022-09-28T03:55:13.000Z,15.48
2022-09-28T03:57:42.000Z,14.18
2022-09-28T04:00:17.000Z,15.8
2022-09-28T04:02:41.000Z,15.9
2022-09-28T04:05:08.000Z,15.75
2022-09-28T04:07:34.000Z,15.4
2022-09-28T04:10:05.000Z,15.73
2022-09-28T04:12:31.000Z,16
2022-09-28T04:14:57.000Z,15.23
2022-09-28T04:17:25.000Z,15.48
2022-09-28T04:19:53.000Z,15.87
2022-09-28T04:22:22.000Z,13.47
2022-09-28T04:27:22.000Z,11.83
2022-09-28T04:29:48.000Z,11.78
2022-09-28T04:32:20.000Z,13.08
2022-09-28T04:34:51.000Z,12.7
2022-09-28T04:37:20.000Z,13.37
2022-09-28T04:39:49.000Z,12.93
2022-09-28T04:42:15.000Z,12.25
2022-09-28T04:44:51.000Z,12.7
2022-09-28T04:47:16.000Z,12.7
2022-09-28T04:49:44.000Z,12.9
2022-09-28T04:52:12.000Z,12.68
2022-09-28T04:54:38.000Z,13.35
2022-09-28T04:57:03.000Z,12.03
2022-09-28T04:59:28.000Z,11.63
2022-09-28T05:01:54.000Z,11.68
2022-09-28T05:04:20.000Z,11.53
2022-09-28T05:06:47.000Z,10.58
2022-09-28T05:09:15.000Z,10.32
2022-09-28T05:11:42.000Z,10
2022-09-28T05:14:06.000Z,11.03
2022-09-28T05:16:37.000Z,10.28
2022-09-28T05:19:04.000Z,9.88
2022-09-28T05:21:29.000Z,10.23
2022-09-28T05:23:58.000Z,10.63
2022-09-28T05:26:27.000Z,9.68
2022-09-28T05:28:58.000Z,10.1
2022-09-28T05:31:28.000Z,11.63
2022-09-28T05:33:55.000Z,11.23
2022-09-28T05:36:20.000Z,10.05
2022-09-28T05:38:46.000Z,11.7
2022-09-28T05:41:12.000Z,12.63
2022-09-28T05:46:08.000Z,16.15
2022-09-28T05:48:34.000Z,15.63
2022-09-28T05:53:42.000Z,25.6
2022-09-28T05:56:11.000Z,20.53
2022-09-28T06:01:10.000Z,24.35
2022-09-28T06:03:36.000Z,20.9
2022-09-28T06:06:02.000Z,28.17
2022-09-28T06:08:30.000Z,20.97
2022-09-28T06:11:09.000Z,22.35
2022-09-28T06:13:36.000Z,26.95
2022-09-28T06:18:36.000Z,25.35
2022-09-28T06:21:02.000Z,25.8
2022-09-28T06:23:31.000Z,29.43
2022-09-28T06:25:57.000Z,28.83
2022-09-28T06:28:26.000Z,29.48
2022-09-28T06:31:02.000Z,33.08
2022-09-28T06:33:31.000Z,30.72
2022-09-28T06:36:03.000Z,32.25
2022-09-28T06:38:32.000Z,33.53
2022-09-28T06:41:06.000Z,29.2
2022-09-28T06:43:33.000Z,30.82
2022-09-28T06:48:30.000Z,29.9
2022-09-28T06:50:57.000Z,31.93
2022-09-28T06:55:56.000Z,32.83
2022-09-28T06:58:36.000Z,31.42
2022-09-28T07:01:03.000Z,32.43
2022-09-28T07:03:31.000Z,33.2
2022-09-28T07:05:57.000Z,32.17
2022-09-28T07:08:25.000Z,33.13
2022-09-28T07:10:56.000Z,33.1
2022-09-28T07:18:32.000Z,32.43
2022-09-28T07:21:00.000Z,31.97
2022-09-28T07:23:26.000Z,32.65
2022-09-28T07:26:09.000Z,32.58
2022-09-28T07:28:37.000Z,32.23
2022-09-28T07:31:22.000Z,34.08
2022-09-28T07:33:44.000Z,33.17
2022-09-28T07:36:12.000Z,32.15
2022-09-28T07:38:37.000Z,33.67
2022-09-28T12:09:53.000Z,27.63
2022-09-28T12:12:20.000Z,27.5
2022-09-28T12:14:45.000Z,28.73
2022-09-28T12:17:12.000Z,30.9
2022-09-28T12:19:38.000Z,33.33
2022-09-28T12:22:04.000Z,33.7
2022-09-28T12:24:29.000Z,33.2
2022-09-28T12:26:55.000Z,33.7
2022-09-28T12:29:20.000Z,33.78
2022-09-28T12:31:49.000Z,31.42
2022-09-28T12:34:16.000Z,32.4
2022-09-28T12:36:51.000Z,31.65
2022-09-28T12:39:17.000Z,32.7
2022-09-28T12:41:53.000Z,31
2022-09-28T12:44:25.000Z,31
2022-09-28T12:46:50.000Z,29.67
2022-09-28T12:49:22.000Z,29.33
2022-09-28T12:51:51.000Z,30.12
2022-09-28T12:54:18.000Z,29.92
2022-09-28T12:56:45.000Z,30.77
2022-09-28T12:59:10.000Z,28.87
2022-09-28T13:01:36.000Z,30
2022-09-28T13:04:02.000Z,28.57
2022-09-28T13:06:28.000Z,29.52
2022-09-28T13:08:53.000Z,28.05
2022-09-28T13:11:20.000Z,26.87
2022-09-28T13:13:47.000Z,26.97
2022-09-28T13:16:13.000Z,26.57
2022-09-28T13:18:38.000Z,26.2
2022-09-28T13:21:11.000Z,25.23
2022-09-28T13:23:37.000Z,26.35
2022-09-28T13:26:02.000Z,25.48
2022-09-28T13:28:31.000Z,25.8
2022-09-28T13:33:22.000Z,25.62
2022-09-28T13:35:49.000Z,26.35
2022-09-28T13:38:18.000Z,25.48
2022-09-28T13:40:48.000Z,26.25
2022-09-28T13:43:17.000Z,26.82
2022-09-28T13:45:46.000Z,26.07
2022-09-28T13:48:10.000Z,25.92
2022-09-28T13:50:38.000Z,25.1
2022-09-28T13:53:02.000Z,26.07
2022-09-28T13:55:29.000Z,26.17
2022-09-28T13:57:56.000Z,25.27
2022-09-28T14:00:30.000Z,26.52
2022-09-28T14:02:53.000Z,26.82
2022-09-28T14:05:19.000Z,26.42
2022-09-28T14:07:45.000Z,26.03
2022-09-28T14:10:15.000Z,25.47
2022-09-28T14:12:46.000Z,25.27
2022-09-28T14:15:10.000Z,25.55
2022-09-28T14:17:36.000Z,25.9
2022-09-28T14:20:06.000Z,25.2
2022-09-28T14:22:29.000Z,26.17
2022-09-28T14:24:56.000Z,25.8
2022-09-28T14:27:25.000Z,26.4
2022-09-28T14:29:51.000Z,25.48
2022-09-28T14:32:20.000Z,25.92
2022-09-28T14:34:45.000Z,25.82
2022-09-28T14:37:18.000Z,24.82
2022-09-28T14:39:44.000Z,25.1
2022-09-28T14:42:11.000Z,25.7
2022-09-28T14:44:39.000Z,26.33
2022-09-28T14:47:07.000Z,25.7
2022-09-28T14:49:35.000Z,27
2022-09-28T14:52:07.000Z,26.42
2022-09-28T14:54:34.000Z,25.72
2022-09-28T14:56:59.000Z,27.3
2022-09-28T14:59:26.000Z,26.85
2022-09-28T15:01:52.000Z,26.2
2022-09-28T15:04:19.000Z,25.93
2022-09-28T15:06:46.000Z,26.25
2022-09-28T15:09:12.000Z,26
2022-09-28T15:11:41.000Z,27.02
2022-09-28T15:14:08.000Z,27.42
2022-09-28T15:16:35.000Z,27.17
2022-09-28T15:19:07.000Z,27.75
2022-09-28T15:21:32.000Z,27.9
2022-09-28T15:23:59.000Z,29.2
2022-09-28T15:26:24.000Z,29.15
2022-09-28T15:28:49.000Z,28.83
2022-09-28T15:31:21.000Z,28.8
2022-09-28T15:33:42.000Z,28.83
2022-09-28T15:36:08.000Z,28.8
2022-09-28T15:38:34.000Z,29.45
2022-09-28T15:41:00.000Z,29.27
2022-09-28T15:43:27.000Z,29.1
2022-09-28T15:45:53.000Z,30.08
2022-09-28T15:48:22.000Z,30.7
2022-09-28T15:50:47.000Z,29.03
2022-09-28T15:53:15.000Z,28.32
2022-09-28T15:55:40.000Z,29.23
2022-09-28T15:58:07.000Z,28.52
2022-09-28T16:00:34.000Z,27.4
2022-09-28T16:03:00.000Z,27.97
2022-09-28T16:05:25.000Z,26.6
2022-09-28T16:07:51.000Z,26.95
2022-09-28T16:10:21.000Z,26.55
2022-09-28T16:12:42.000Z,26.2
2022-09-28T16:15:10.000Z,24.37
2022-09-28T16:17:34.000Z,23.43
2022-09-28T16:20:00.000Z,22.65
2022-09-28T16:22:27.000Z,21.62
2022-09-28T16:25:02.000Z,21.23
2022-09-28T16:27:18.000Z,20.87
2022-09-28T16:29:43.000Z,19.93
2022-09-28T16:32:09.000Z,20.33
2022-09-28T16:34:35.000Z,19.23
2022-09-28T16:37:00.000Z,20.45
2022-09-28T16:39:26.000Z,20.3
2022-09-28T16:41:52.000Z,21.6
2022-09-28T16:44:18.000Z,20.9
2022-09-28T16:46:44.000Z,21.93
2022-09-28T16:49:10.000Z,21.57
2022-09-28T16:51:35.000Z,20.8
2022-09-28T16:54:01.000Z,20.6
2022-09-28T16:56:29.000Z,21.2
2022-09-28T16:58:52.000Z,20.4
2022-09-28T17:01:17.000Z,21
2022-09-28T17:03:43.000Z,20.65
2022-09-28T17:06:10.000Z,21.05
2022-09-28T17:08:36.000Z,21.03
2022-09-28T17:11:00.000Z,21.8
2022-09-28T17:13:27.000Z,22.2
2022-09-28T17:15:52.000Z,22.9
2022-09-28T17:18:18.000Z,22.17
2022-09-28T17:20:44.000Z,21.9
2022-09-28T17:23:11.000Z,22.9
2022-09-28T17:25:38.000Z,21.93
2022-09-28T17:28:02.000Z,22.5
2022-09-28T17:30:27.000Z,23.18
2022-09-28T17:32:54.000Z,23.4
2022-09-28T17:35:19.000Z,22.97
2022-09-28T17:37:44.000Z,23.7
2022-09-28T17:40:14.000Z,23.9
2022-09-28T17:42:36.000Z,23.3
2022-09-28T17:45:05.000Z,23.5
2022-09-28T17:47:28.000Z,23.97
2022-09-28T17:49:53.000Z,26
2022-09-28T17:52:20.000Z,25.68
2022-09-28T17:54:46.000Z,26.15
2022-09-28T17:57:12.000Z,25.8
2022-09-28T17:59:37.000Z,26.3
2022-09-28T18:02:02.000Z,26
2022-09-28T18:04:28.000Z,25.72
2022-09-28T18:06:53.000Z,25.57
2022-09-28T18:09:20.000Z,25.77
2022-09-28T18:11:45.000Z,25.6
2022-09-28T18:14:12.000Z,25.82
2022-09-28T18:16:38.000Z,26.45
2022-09-28T18:19:03.000Z,25.95
2022-09-28T18:21:28.000Z,26.68
2022-09-28T18:23:55.000Z,26.8
2022-09-28T18:26:20.000Z,26.3
2022-09-28T18:28:46.000Z,26.5
2022-09-28T18:31:12.000Z,26.73
2022-09-28T18:33:37.000Z,25.68
2022-09-28T18:36:04.000Z,25.02
2022-09-28T18:38:29.000Z,26.07
2022-09-28T18:40:55.000Z,25.85
2022-09-28T18:43:23.000Z,26.35
2022-09-28T18:45:48.000Z,26.05
2022-09-28T18:48:13.000Z,25.72
2022-09-28T18:50:38.000Z,24.07
2022-09-28T18:53:06.000Z,21.8
2022-09-28T18:55:31.000Z,20.88
2022-09-28T18:57:56.000Z,20.12
2022-09-28T19:00:26.000Z,19.27
2022-09-28T19:02:47.000Z,18.23
2022-09-28T19:05:13.000Z,17.67
2022-09-28T19:07:39.000Z,16.87
2022-09-28T19:10:06.000Z,17.17
2022-09-28T19:12:30.000Z,16.37
2022-09-28T19:14:59.000Z,16.57
2022-09-28T19:17:22.000Z,16
2022-09-28T19:19:48.000Z,15.9
2022-09-28T19:22:14.000Z,15.6
2022-09-28T19:24:39.000Z,14.93
2022-09-28T19:27:05.000Z,14.4
2022-09-28T19:29:30.000Z,14.38
2022-09-28T19:31:57.000Z,14.7
2022-09-28T19:34:22.000Z,14.3
2022-09-28T19:36:47.000Z,14.8
2022-09-28T19:39:13.000Z,14.35
2022-09-28T19:41:39.000Z,14.68
2022-09-28T19:44:06.000Z,15.37
2022-09-28T19:46:31.000Z,14.45
2022-09-28T19:48:57.000Z,14.77
2022-09-28T19:51:22.000Z,15.13
2022-09-28T19:53:48.000Z,14.95
2022-09-28T19:56:14.000Z,14.8
2022-09-28T19:58:39.000Z,14.8
2022-09-28T20:01:06.000Z,15.1
2022-09-28T20:03:31.000Z,14.7
2022-09-28T20:05:57.000Z,15.03
2022-09-28T20:08:23.000Z,15.5
2022-09-28T20:10:49.000Z,15.1
2022-09-28T20:13:15.000Z,14.87
2022-09-28T20:15:42.000Z,14.95
2022-09-28T20:18:10.000Z,15.25
2022-09-28T20:20:32.000Z,15.5
2022-09-28T20:22:58.000Z,15.73
2022-09-28T20:25:23.000Z,15.8
2022-09-28T20:27:49.000Z,15.4
2022-09-28T20:30:20.000Z,15.23
2022-09-28T20:32:40.000Z,15.9
2022-09-28T20:35:07.000Z,16.17
2022-09-28T20:37:33.000Z,16.7
2022-09-28T20:39:59.000Z,16.83
2022-09-28T20:42:23.000Z,17.37
2022-09-28T20:44:49.000Z,16.62
2022-09-28T20:47:17.000Z,17.27
2022-09-28T20:49:41.000Z,17.73
2022-09-28T20:52:06.000Z,17.2
2022-09-28T20:54:33.000Z,17.63
2022-09-28T20:56:57.000Z,17.8
2022-09-28T20:59:24.000Z,17.82
2022-09-28T21:01:50.000Z,17.2
2022-09-28T21:04:15.000Z,17.47
2022-09-28T21:06:42.000Z,17.1
2022-09-28T21:09:06.000Z,17.8
2022-09-28T21:11:32.000Z,17.17
2022-09-28T21:13:59.000Z,18.55
2022-09-28T21:16:24.000Z,18.77
2022-09-28T21:18:49.000Z,18.53
2022-09-28T21:21:16.000Z,18.8
2022-09-28T21:23:41.000Z,18.3
2022-09-28T21:26:07.000Z,17.98
2022-09-28T21:28:33.000Z,18.85
2022-09-28T21:30:59.000Z,18.4
2022-09-28T21:33:25.000Z,17.55
2022-09-28T21:35:50.000Z,18.07
2022-09-28T21:38:16.000Z,18.13
2022-09-28T21:40:41.000Z,18.1
2022-09-28T21:43:07.000Z,17.5
2022-09-28T21:45:33.000Z,17.85
2022-09-28T21:47:59.000Z,17.75
2022-09-28T21:50:25.000Z,17.32
2022-09-28T21:52:50.000Z,17.33
2022-09-28T21:55:18.000Z,17.47
2022-09-28T21:57:42.000Z,17.67
2022-09-28T22:00:15.000Z,17.05
2022-09-28T22:02:34.000Z,17.65
2022-09-28T22:04:59.000Z,16.9
2022-09-28T22:07:26.000Z,16.33
2022-09-28T22:09:51.000Z,16.6
2022-09-28T22:12:16.000Z,16.77
2022-09-28T22:14:44.000Z,17.75
2022-09-28T22:17:09.000Z,17.23
2022-09-28T22:19:34.000Z,17.2
2022-09-28T22:22:00.000Z,17.7
2022-09-28T22:24:26.000Z,18.1
2022-09-28T22:26:52.000Z,18.82
2022-09-28T22:29:17.000Z,17.6
2022-09-28T22:31:43.000Z,18.5
2022-09-28T22:34:08.000Z,18.4
2022-09-28T22:36:35.000Z,19.17
2022-09-28T22:39:00.000Z,19.32
2022-09-28T22:41:26.000Z,20
2022-09-28T22:43:52.000Z,20.72
2022-09-28T22:46:18.000Z,21.62
2022-09-28T22:48:43.000Z,21.83
2022-09-28T22:51:09.000Z,21.5
2022-09-28T22:53:35.000Z,21.57
2022-09-28T22:56:00.000Z,21.8
2022-09-28T22:58:26.000Z,22.2
2022-09-28T23:00:53.000Z,22.23
2022-09-28T23:03:18.000Z,22.17
2022-09-28T23:05:43.000Z,21.33
2022-09-28T23:08:11.000Z,21.05
2022-09-28T23:10:37.000Z,21.75
2022-09-28T23:13:01.000Z,24.32
2022-09-28T23:15:27.000Z,23.75
2022-09-28T23:17:53.000Z,22.77
2022-09-28T23:20:19.000Z,22.93
2022-09-28T23:22:44.000Z,22.47
2022-09-28T23:25:12.000Z,22.8
2022-09-28T23:27:36.000Z,22.8
2022-09-28T23:30:04.000Z,22.1
2022-09-28T23:32:28.000Z,22.95
2022-09-28T23:34:53.000Z,23.05
2022-09-28T23:37:19.000Z,23.23
2022-09-28T23:39:45.000Z,24.6
2022-09-28T23:42:13.000Z,24.6
2022-09-28T23:44:39.000Z,25.9
2022-09-28T23:47:03.000Z,25.57
2022-09-28T23:49:29.000Z,23.55
2022-09-28T23:51:56.000Z,21.45
2022-09-28T23:54:44.000Z,20.95
2022-09-28T23:56:46.000Z,20.7
2022-09-28T23:59:12.000Z,20.2
